sensor_id;sensor_type;location;lat;lon;timestamp;temperature;humidity
75164;HTU21D;63746;45.402;37.922;2022-10-31T00:00:56;14.72;70.78
75164;HTU21D;63746;45.402;37.922;2022-10-31T00:03:23;14.70;70.77
75164;HTU21D;63746;45.402;37.922;2022-10-31T00:05:49;14.70;70.75
75164;HTU21D;63746;45.402;37.922;2022-10-31T00:08:18;14.70;70.87
75164;HTU21D;63746;45.402;37.922;2022-10-31T00:10:45;14.68;70.77
75164;HTU21D;63746;45.402;37.922;2022-10-31T00:13:13;14.68;70.80
75164;HTU21D;63746;45.402;37.922;2022-10-31T00:15:40;14.69;70.77
75164;HTU21D;63746;45.402;37.922;2022-10-31T00:18:07;14.67;70.78
75164;HTU21D;63746;45.402;37.922;2022-10-31T00:20:34;14.68;70.77
75164;HTU21D;63746;45.402;37.922;2022-10-31T00:23:01;14.67;70.80
75164;HTU21D;63746;45.402;37.922;2022-10-31T00:25:28;14.68;70.81
75164;HTU21D;63746;45.402;37.922;2022-10-31T00:27:54;14.68;70.83
75164;HTU21D;63746;45.402;37.922;2022-10-31T00:30:20;14.67;70.82
75164;HTU21D;63746;45.402;37.922;2022-10-31T00:32:46;14.67;70.84
75164;HTU21D;63746;45.402;37.922;2022-10-31T00:35:12;14.67;70.85
75164;HTU21D;63746;45.402;37.922;2022-10-31T00:37:38;14.67;70.86
75164;HTU21D;63746;45.402;37.922;2022-10-31T00:40:04;14.67;70.84
75164;HTU21D;63746;45.402;37.922;2022-10-31T00:42:30;14.67;70.83
75164;HTU21D;63746;45.402;37.922;2022-10-31T00:44:57;14.66;70.83
75164;HTU21D;63746;45.402;37.922;2022-10-31T00:47:23;14.65;70.85
75164;HTU21D;63746;45.402;37.922;2022-10-31T00:49:49;14.65;70.85
75164;HTU21D;63746;45.402;37.922;2022-10-31T00:52:15;14.64;70.85
75164;HTU21D;63746;45.402;37.922;2022-10-31T00:54:41;14.63;70.87
75164;HTU21D;63746;45.402;37.922;2022-10-31T00:57:07;14.64;70.87
75164;HTU21D;63746;45.402;37.922;2022-10-31T00:59:33;14.63;70.89
75164;HTU21D;63746;45.402;37.922;2022-10-31T01:01:59;14.63;70.90
75164;HTU21D;63746;45.402;37.922;2022-10-31T01:04:25;14.63;70.86
75164;HTU21D;63746;45.402;37.922;2022-10-31T01:06:51;14.60;70.89
75164;HTU21D;63746;45.402;37.922;2022-10-31T01:09:17;14.62;70.92
75164;HTU21D;63746;45.402;37.922;2022-10-31T01:11:43;14.59;70.91
75164;HTU21D;63746;45.402;37.922;2022-10-31T01:14:09;14.58;70.95
75164;HTU21D;63746;45.402;37.922;2022-10-31T01:16:35;14.59;70.97
75164;HTU21D;63746;45.402;37.922;2022-10-31T01:19:01;14.59;70.99
75164;HTU21D;63746;45.402;37.922;2022-10-31T01:21:28;14.59;70.99
75164;HTU21D;63746;45.402;37.922;2022-10-31T01:23:58;14.59;71.03
75164;HTU21D;63746;45.402;37.922;2022-10-31T01:26:26;14.59;71.03
75164;HTU21D;63746;45.402;37.922;2022-10-31T01:29:01;14.60;71.25
75164;HTU21D;63746;45.402;37.922;2022-10-31T01:31:30;14.62;71.10
75164;HTU21D;63746;45.402;37.922;2022-10-31T01:33:57;14.60;71.09
75164;HTU21D;63746;45.402;37.922;2022-10-31T01:36:31;14.60;71.36
75164;HTU21D;63746;45.402;37.922;2022-10-31T01:39:00;14.59;71.15
75164;HTU21D;63746;45.402;37.922;2022-10-31T01:41:30;14.59;71.14
75164;HTU21D;63746;45.402;37.922;2022-10-31T01:43:59;14.59;71.17
75164;HTU21D;63746;45.402;37.922;2022-10-31T01:46:37;14.59;71.16
75164;HTU21D;63746;45.402;37.922;2022-10-31T01:49:08;14.59;71.18
75164;HTU21D;63746;45.402;37.922;2022-10-31T01:51:38;14.58;71.14
75164;HTU21D;63746;45.402;37.922;2022-10-31T01:54:11;14.58;71.11
75164;HTU21D;63746;45.402;37.922;2022-10-31T01:56:40;14.56;71.06
75164;HTU21D;63746;45.402;37.922;2022-10-31T01:59:10;14.54;71.07
75164;HTU21D;63746;45.402;37.922;2022-10-31T02:01:37;14.53;71.06
75164;HTU21D;63746;45.402;37.922;2022-10-31T02:04:04;14.51;71.03
75164;HTU21D;63746;45.402;37.922;2022-10-31T02:08:58;14.48;71.01
75164;HTU21D;63746;45.402;37.922;2022-10-31T02:11:25;14.44;71.01
75164;HTU21D;63746;45.402;37.922;2022-10-31T02:13:53;14.41;71.00
75164;HTU21D;63746;45.402;37.922;2022-10-31T02:16:21;14.40;71.01
75164;HTU21D;63746;45.402;37.922;2022-10-31T02:18:47;14.37;71.00
75164;HTU21D;63746;45.402;37.922;2022-10-31T02:21:22;14.34;71.01
75164;HTU21D;63746;45.402;37.922;2022-10-31T02:29:11;14.27;71.41
75164;HTU21D;63746;45.402;37.922;2022-10-31T02:34:57;14.22;71.51
75164;HTU21D;63746;45.402;37.922;2022-10-31T02:40:23;14.15;71.27
75164;HTU21D;63746;45.402;37.922;2022-10-31T02:43:29;14.12;71.26
75164;HTU21D;63746;45.402;37.922;2022-10-31T02:46:03;14.10;71.20
75164;HTU21D;63746;45.402;37.922;2022-10-31T02:48:33;14.08;72.18
75164;HTU21D;63746;45.402;37.922;2022-10-31T02:51:02;14.04;71.22
75164;HTU21D;63746;45.402;37.922;2022-10-31T02:53:34;14.00;71.32
75164;HTU21D;63746;45.402;37.922;2022-10-31T02:56:12;13.96;71.45
75164;HTU21D;63746;45.402;37.922;2022-10-31T02:58:46;13.94;71.31
75164;HTU21D;63746;45.402;37.922;2022-10-31T03:04:28;13.91;71.56
75164;HTU21D;63746;45.402;37.922;2022-10-31T03:07:02;13.89;71.20
75164;HTU21D;63746;45.402;37.922;2022-10-31T03:15:11;13.80;71.28
75164;HTU21D;63746;45.402;37.922;2022-10-31T03:17:49;13.77;71.22
75164;HTU21D;63746;45.402;37.922;2022-10-31T03:20:17;13.75;71.16
75164;HTU21D;63746;45.402;37.922;2022-10-31T03:22:48;13.70;71.17
75164;HTU21D;63746;45.402;37.922;2022-10-31T03:25:14;13.69;71.16
75164;HTU21D;63746;45.402;37.922;2022-10-31T03:27:41;13.68;71.12
75164;HTU21D;63746;45.402;37.922;2022-10-31T03:30:09;13.66;71.09
75164;HTU21D;63746;45.402;37.922;2022-10-31T03:32:57;13.63;71.11
75164;HTU21D;63746;45.402;37.922;2022-10-31T03:35:27;13.59;71.14
75164;HTU21D;63746;45.402;37.922;2022-10-31T03:37:54;13.55;71.16
75164;HTU21D;63746;45.402;37.922;2022-10-31T03:40:23;13.54;71.17
75164;HTU21D;63746;45.402;37.922;2022-10-31T03:42:55;13.50;71.20
75164;HTU21D;63746;45.402;37.922;2022-10-31T03:45:27;13.48;71.21
75164;HTU21D;63746;45.402;37.922;2022-10-31T03:47:57;13.46;71.22
75164;HTU21D;63746;45.402;37.922;2022-10-31T03:50:28;13.47;71.25
75164;HTU21D;63746;45.402;37.922;2022-10-31T03:53:00;13.43;71.24
75164;HTU21D;63746;45.402;37.922;2022-10-31T03:55:32;13.43;71.24
75164;HTU21D;63746;45.402;37.922;2022-10-31T04:00:28;13.38;71.22
75164;HTU21D;63746;45.402;37.922;2022-10-31T04:03:31;13.36;71.60
75164;HTU21D;63746;45.402;37.922;2022-10-31T04:06:03;13.31;71.23
75164;HTU21D;63746;45.402;37.922;2022-10-31T04:08:33;13.27;71.26
75164;HTU21D;63746;45.402;37.922;2022-10-31T04:11:03;13.24;71.26
75164;HTU21D;63746;45.402;37.922;2022-10-31T04:13:33;13.23;71.33
75164;HTU21D;63746;45.402;37.922;2022-10-31T04:16:09;13.20;71.35
75164;HTU21D;63746;45.402;37.922;2022-10-31T04:18:35;13.18;71.40
75164;HTU21D;63746;45.402;37.922;2022-10-31T04:21:05;13.19;71.47
75164;HTU21D;63746;45.402;37.922;2022-10-31T04:23:32;13.18;71.44
75164;HTU21D;63746;45.402;37.922;2022-10-31T04:26:02;13.18;71.46
75164;HTU21D;63746;45.402;37.922;2022-10-31T04:28:28;13.19;71.45
75164;HTU21D;63746;45.402;37.922;2022-10-31T04:30:54;13.18;71.45
75164;HTU21D;63746;45.402;37.922;2022-10-31T04:33:21;13.18;71.49
75164;HTU21D;63746;45.402;37.922;2022-10-31T04:35:47;13.17;71.50
75164;HTU21D;63746;45.402;37.922;2022-10-31T04:38:13;13.18;71.51
75164;HTU21D;63746;45.402;37.922;2022-10-31T04:40:40;13.18;71.48
75164;HTU21D;63746;45.402;37.922;2022-10-31T04:43:25;13.18;71.52
75164;HTU21D;63746;45.402;37.922;2022-10-31T04:45:51;13.18;71.49
75164;HTU21D;63746;45.402;37.922;2022-10-31T04:48:20;13.18;71.53
75164;HTU21D;63746;45.402;37.922;2022-10-31T04:50:46;13.20;71.55
75164;HTU21D;63746;45.402;37.922;2022-10-31T04:53:13;13.20;71.53
75164;HTU21D;63746;45.402;37.922;2022-10-31T04:55:59;13.23;71.69
75164;HTU21D;63746;45.402;37.922;2022-10-31T04:58:34;13.26;71.66
75164;HTU21D;63746;45.402;37.922;2022-10-31T05:01:00;13.30;71.67
75164;HTU21D;63746;45.402;37.922;2022-10-31T05:03:26;13.31;71.64
75164;HTU21D;63746;45.402;37.922;2022-10-31T05:05:51;13.33;71.68
75164;HTU21D;63746;45.402;37.922;2022-10-31T05:08:17;13.35;71.67
75164;HTU21D;63746;45.402;37.922;2022-10-31T05:10:45;13.38;71.68
75164;HTU21D;63746;45.402;37.922;2022-10-31T05:13:11;13.40;71.67
75164;HTU21D;63746;45.402;37.922;2022-10-31T05:15:43;13.45;71.67
75164;HTU21D;63746;45.402;37.922;2022-10-31T05:18:27;13.45;71.64
75164;HTU21D;63746;45.402;37.922;2022-10-31T05:21:12;13.45;71.63
75164;HTU21D;63746;45.402;37.922;2022-10-31T05:23:43;13.46;71.61
75164;HTU21D;63746;45.402;37.922;2022-10-31T05:26:09;13.47;71.64
75164;HTU21D;63746;45.402;37.922;2022-10-31T05:28:35;13.50;71.61
75164;HTU21D;63746;45.402;37.922;2022-10-31T05:31:03;13.49;71.62
75164;HTU21D;63746;45.402;37.922;2022-10-31T05:33:30;13.51;71.67
75164;HTU21D;63746;45.402;37.922;2022-10-31T05:36:14;13.54;71.73
75164;HTU21D;63746;45.402;37.922;2022-10-31T05:38:53;13.60;71.82
75164;HTU21D;63746;45.402;37.922;2022-10-31T05:41:33;13.64;71.86
75164;HTU21D;63746;45.402;37.922;2022-10-31T05:44:12;13.70;71.90
75164;HTU21D;63746;45.402;37.922;2022-10-31T05:46:51;13.76;71.84
75164;HTU21D;63746;45.402;37.922;2022-10-31T05:49:36;13.81;71.83
75164;HTU21D;63746;45.402;37.922;2022-10-31T05:52:20;13.84;71.82
75164;HTU21D;63746;45.402;37.922;2022-10-31T05:54:56;13.90;71.81
75164;HTU21D;63746;45.402;37.922;2022-10-31T05:57:22;13.95;71.76
75164;HTU21D;63746;45.402;37.922;2022-10-31T05:59:48;13.99;71.76
75164;HTU21D;63746;45.402;37.922;2022-10-31T06:02:20;14.06;71.84
75164;HTU21D;63746;45.402;37.922;2022-10-31T06:05:15;14.15;71.91
75164;HTU21D;63746;45.402;37.922;2022-10-31T06:07:42;14.23;71.79
75164;HTU21D;63746;45.402;37.922;2022-10-31T06:10:08;14.28;71.73
75164;HTU21D;63746;45.402;37.922;2022-10-31T06:12:35;14.33;71.64
75164;HTU21D;63746;45.402;37.922;2022-10-31T06:15:29;14.37;71.65
75164;HTU21D;63746;45.402;37.922;2022-10-31T06:18:04;14.40;71.67
75164;HTU21D;63746;45.402;37.922;2022-10-31T06:20:34;14.41;71.51
75164;HTU21D;63746;45.402;37.922;2022-10-31T06:23:03;14.43;71.64
75164;HTU21D;63746;45.402;37.922;2022-10-31T06:25:31;14.53;71.71
75164;HTU21D;63746;45.402;37.922;2022-10-31T06:27:57;14.63;71.78
75164;HTU21D;63746;45.402;37.922;2022-10-31T06:30:29;14.73;71.84
75164;HTU21D;63746;45.402;37.922;2022-10-31T06:33:02;14.83;71.86
75164;HTU21D;63746;45.402;37.922;2022-10-31T06:35:28;14.91;71.54
75164;HTU21D;63746;45.402;37.922;2022-10-31T06:37:54;14.92;71.33
75164;HTU21D;63746;45.402;37.922;2022-10-31T06:40:29;14.91;71.21
75164;HTU21D;63746;45.402;37.922;2022-10-31T06:43:14;14.89;71.25
75164;HTU21D;63746;45.402;37.922;2022-10-31T06:45:41;14.91;71.27
75164;HTU21D;63746;45.402;37.922;2022-10-31T06:48:25;14.93;71.21
75164;HTU21D;63746;45.402;37.922;2022-10-31T06:51:17;14.93;71.19
75164;HTU21D;63746;45.402;37.922;2022-10-31T06:53:43;14.91;71.20
75164;HTU21D;63746;45.402;37.922;2022-10-31T06:56:11;14.92;71.21
75164;HTU21D;63746;45.402;37.922;2022-10-31T06:58:43;14.94;71.23
75164;HTU21D;63746;45.402;37.922;2022-10-31T07:01:10;14.97;71.22
75164;HTU21D;63746;45.402;37.922;2022-10-31T07:03:36;14.96;71.19
75164;HTU21D;63746;45.402;37.922;2022-10-31T07:06:02;14.97;71.15
75164;HTU21D;63746;45.402;37.922;2022-10-31T07:08:28;14.97;71.19
75164;HTU21D;63746;45.402;37.922;2022-10-31T07:10:55;14.99;71.18
75164;HTU21D;63746;45.402;37.922;2022-10-31T07:13:23;15.00;71.22
75164;HTU21D;63746;45.402;37.922;2022-10-31T07:16:03;15.06;71.37
75164;HTU21D;63746;45.402;37.922;2022-10-31T07:18:32;15.13;71.48
75164;HTU21D;63746;45.402;37.922;2022-10-31T07:20:58;15.19;71.36
75164;HTU21D;63746;45.402;37.922;2022-10-31T07:23:25;15.25;71.29
75164;HTU21D;63746;45.402;37.922;2022-10-31T07:26:11;15.31;71.31
75164;HTU21D;63746;45.402;37.922;2022-10-31T07:28:43;15.38;71.26
75164;HTU21D;63746;45.402;37.922;2022-10-31T07:31:12;15.40;71.13
75164;HTU21D;63746;45.402;37.922;2022-10-31T07:33:38;15.41;71.04
75164;HTU21D;63746;45.402;37.922;2022-10-31T07:36:24;15.42;70.94
75164;HTU21D;63746;45.402;37.922;2022-10-31T07:38:53;15.41;70.93
75164;HTU21D;63746;45.402;37.922;2022-10-31T07:41:19;15.43;70.92
75164;HTU21D;63746;45.402;37.922;2022-10-31T07:43:45;15.44;71.00
75164;HTU21D;63746;45.402;37.922;2022-10-31T07:46:17;15.46;70.92
75164;HTU21D;63746;45.402;37.922;2022-10-31T07:49:01;15.49;71.02
75164;HTU21D;63746;45.402;37.922;2022-10-31T07:51:46;15.54;71.00
75164;HTU21D;63746;45.402;37.922;2022-10-31T07:54:12;15.59;71.04
75164;HTU21D;63746;45.402;37.922;2022-10-31T07:56:38;15.69;71.17
75164;HTU21D;63746;45.402;37.922;2022-10-31T07:59:05;15.81;71.23
75164;HTU21D;63746;45.402;37.922;2022-10-31T08:01:31;15.95;71.22
75164;HTU21D;63746;45.402;37.922;2022-10-31T08:04:17;16.11;71.04
75164;HTU21D;63746;45.402;37.922;2022-10-31T08:07:02;16.24;70.96
75164;HTU21D;63746;45.402;37.922;2022-10-31T08:09:33;16.32;70.85
75164;HTU21D;63746;45.402;37.922;2022-10-31T08:12:04;16.45;70.78
75164;HTU21D;63746;45.402;37.922;2022-10-31T08:14:32;16.56;70.72
75164;HTU21D;63746;45.402;37.922;2022-10-31T08:16:58;16.65;70.58
75164;HTU21D;63746;45.402;37.922;2022-10-31T08:19:33;16.75;70.45
75164;HTU21D;63746;45.402;37.922;2022-10-31T08:22:00;16.79;70.34
75164;HTU21D;63746;45.402;37.922;2022-10-31T08:24:26;16.86;70.35
75164;HTU21D;63746;45.402;37.922;2022-10-31T08:26:53;16.93;70.34
75164;HTU21D;63746;45.402;37.922;2022-10-31T08:29:19;17.05;70.36
75164;HTU21D;63746;45.402;37.922;2022-10-31T08:31:46;17.15;70.25
75164;HTU21D;63746;45.402;37.922;2022-10-31T08:34:30;17.24;70.17
75164;HTU21D;63746;45.402;37.922;2022-10-31T08:37:32;17.35;70.03
75164;HTU21D;63746;45.402;37.922;2022-10-31T08:39:58;17.39;69.90
75164;HTU21D;63746;45.402;37.922;2022-10-31T08:42:24;17.40;69.78
75164;HTU21D;63746;45.402;37.922;2022-10-31T08:44:49;17.38;69.58
75164;HTU21D;63746;45.402;37.922;2022-10-31T08:47:19;17.30;69.51
75164;HTU21D;63746;45.402;37.922;2022-10-31T08:49:46;17.24;69.45
75164;HTU21D;63746;45.402;37.922;2022-10-31T08:52:13;17.15;69.41
75164;HTU21D;63746;45.402;37.922;2022-10-31T08:54:42;17.04;67.94
75164;HTU21D;63746;45.402;37.922;2022-10-31T08:57:46;16.91;69.49
75164;HTU21D;63746;45.402;37.922;2022-10-31T09:00:12;16.86;69.73
75164;HTU21D;63746;45.402;37.922;2022-10-31T09:02:55;16.81;69.81
75164;HTU21D;63746;45.402;37.922;2022-10-31T09:05:22;16.80;69.88
75164;HTU21D;63746;45.402;37.922;2022-10-31T09:07:48;16.78;69.81
75164;HTU21D;63746;45.402;37.922;2022-10-31T09:10:14;16.74;69.76
75164;HTU21D;63746;45.402;37.922;2022-10-31T09:12:41;16.69;69.69
75164;HTU21D;63746;45.402;37.922;2022-10-31T09:15:22;16.60;69.69
75164;HTU21D;63746;45.402;37.922;2022-10-31T09:18:18;16.50;69.74
75164;HTU21D;63746;45.402;37.922;2022-10-31T09:21:03;16.45;69.77
75164;HTU21D;63746;45.402;37.922;2022-10-31T09:23:30;16.39;69.81
75164;HTU21D;63746;45.402;37.922;2022-10-31T09:25:59;16.35;69.95
75164;HTU21D;63746;45.402;37.922;2022-10-31T09:28:45;16.33;69.94
75164;HTU21D;63746;45.402;37.922;2022-10-31T09:31:14;16.31;69.15
75164;HTU21D;63746;45.402;37.922;2022-10-31T09:33:55;16.25;69.97
75164;HTU21D;63746;45.402;37.922;2022-10-31T09:36:39;16.20;70.01
75164;HTU21D;63746;45.402;37.922;2022-10-31T09:39:12;16.19;70.09
75164;HTU21D;63746;45.402;37.922;2022-10-31T09:47:42;16.20;70.11
75164;HTU21D;63746;45.402;37.922;2022-10-31T09:53:12;16.22;69.66
75164;HTU21D;63746;45.402;37.922;2022-10-31T09:55:44;16.18;70.06
75164;HTU21D;63746;45.402;37.922;2022-10-31T09:58:20;16.16;70.07
75164;HTU21D;63746;45.402;37.922;2022-10-31T10:00:49;16.17;70.13
75164;HTU21D;63746;45.402;37.922;2022-10-31T10:03:33;16.16;69.88
75164;HTU21D;63746;45.402;37.922;2022-10-31T10:06:21;16.14;70.00
75164;HTU21D;63746;45.402;37.922;2022-10-31T10:09:14;16.12;70.03
75164;HTU21D;63746;45.402;37.922;2022-10-31T10:14:44;16.07;69.88
75164;HTU21D;63746;45.402;37.922;2022-10-31T10:25:32;16.00;69.97
75164;HTU21D;63746;45.402;37.922;2022-10-31T10:28:21;15.98;69.83
75164;HTU21D;63746;45.402;37.922;2022-10-31T10:33:40;15.89;69.85
75164;HTU21D;63746;45.402;37.922;2022-10-31T10:36:24;15.87;69.82
75164;HTU21D;63746;45.402;37.922;2022-10-31T10:39:07;15.85;69.85
75164;HTU21D;63746;45.402;37.922;2022-10-31T10:41:41;15.84;70.01
75164;HTU21D;63746;45.402;37.922;2022-10-31T10:44:10;15.83;70.03
75164;HTU21D;63746;45.402;37.922;2022-10-31T10:46:42;15.81;70.03
75164;HTU21D;63746;45.402;37.922;2022-10-31T10:49:51;15.78;70.00
75164;HTU21D;63746;45.402;37.922;2022-10-31T10:58:00;15.74;69.96
75164;HTU21D;63746;45.402;37.922;2022-10-31T11:03:05;15.72;70.11
75164;HTU21D;63746;45.402;37.922;2022-10-31T11:08:03;15.75;70.19
75164;HTU21D;63746;45.402;37.922;2022-10-31T11:10:29;15.78;70.20
75164;HTU21D;63746;45.402;37.922;2022-10-31T11:15:49;15.85;70.12
75164;HTU21D;63746;45.402;37.922;2022-10-31T11:18:23;15.90;70.13
75164;HTU21D;63746;45.402;37.922;2022-10-31T11:20:57;15.92;70.04
75164;HTU21D;63746;45.402;37.922;2022-10-31T11:23:25;15.90;69.90
75164;HTU21D;63746;45.402;37.922;2022-10-31T11:28:20;15.82;69.86
75164;HTU21D;63746;45.402;37.922;2022-10-31T11:30:53;15.83;69.94
75164;HTU21D;63746;45.402;37.922;2022-10-31T11:33:28;15.85;69.97
75164;HTU21D;63746;45.402;37.922;2022-10-31T11:35:55;15.88;69.63
75164;HTU21D;63746;45.402;37.922;2022-10-31T11:38:23;15.87;69.99
75164;HTU21D;63746;45.402;37.922;2022-10-31T11:41:14;15.88;69.86
75164;HTU21D;63746;45.402;37.922;2022-10-31T11:43:55;15.90;70.05
75164;HTU21D;63746;45.402;37.922;2022-10-31T11:46:38;15.93;70.02
75164;HTU21D;63746;45.402;37.922;2022-10-31T11:49:19;15.91;69.77
75164;HTU21D;63746;45.402;37.922;2022-10-31T11:51:52;15.85;69.76
75164;HTU21D;63746;45.402;37.922;2022-10-31T11:54:30;15.81;69.63
75164;HTU21D;63746;45.402;37.922;2022-10-31T11:56:58;15.76;69.78
75164;HTU21D;63746;45.402;37.922;2022-10-31T11:59:30;15.71;69.77
75164;HTU21D;63746;45.402;37.922;2022-10-31T12:01:58;15.67;69.76
75164;HTU21D;63746;45.402;37.922;2022-10-31T12:06:57;15.60;69.87
75164;HTU21D;63746;45.402;37.922;2022-10-31T12:09:27;15.56;69.86
75164;HTU21D;63746;45.402;37.922;2022-10-31T12:12:05;15.54;69.88
75164;HTU21D;63746;45.402;37.922;2022-10-31T12:17:19;15.43;69.84
75164;HTU21D;63746;45.402;37.922;2022-10-31T12:25:45;15.22;69.84
75164;HTU21D;63746;45.402;37.922;2022-10-31T12:37:11;15.04;70.08
75164;HTU21D;63746;45.402;37.922;2022-10-31T12:39:59;15.04;70.15
75164;HTU21D;63746;45.402;37.922;2022-10-31T12:42:46;15.00;70.12
75164;HTU21D;63746;45.402;37.922;2022-10-31T12:45:34;14.98;70.22
75164;HTU21D;63746;45.402;37.922;2022-10-31T12:48:24;14.96;70.16
75164;HTU21D;63746;45.402;37.922;2022-10-31T12:51:15;14.93;70.12
75164;HTU21D;63746;45.402;37.922;2022-10-31T12:59:31;14.79;69.99
75164;HTU21D;63746;45.402;37.922;2022-10-31T13:02:10;14.75;70.10
75164;HTU21D;63746;45.402;37.922;2022-10-31T13:04:44;14.70;70.07
75164;HTU21D;63746;45.402;37.922;2022-10-31T13:07:18;14.65;70.10
75164;HTU21D;63746;45.402;37.922;2022-10-31T13:12:21;14.58;70.13
75164;HTU21D;63746;45.402;37.922;2022-10-31T13:14:52;14.54;70.15
75164;HTU21D;63746;45.402;37.922;2022-10-31T13:17:31;14.53;70.13
75164;HTU21D;63746;45.402;37.922;2022-10-31T13:20:12;14.51;70.16
75164;HTU21D;63746;45.402;37.922;2022-10-31T13:22:44;14.49;70.21
75164;HTU21D;63746;45.402;37.922;2022-10-31T13:25:23;14.47;70.19
75164;HTU21D;63746;45.402;37.922;2022-10-31T13:30:28;14.42;70.19
75164;HTU21D;63746;45.402;37.922;2022-10-31T13:38:23;14.32;70.07
75164;HTU21D;63746;45.402;37.922;2022-10-31T13:44:25;14.19;69.99
75164;HTU21D;63746;45.402;37.922;2022-10-31T13:46:53;14.13;70.17
75164;HTU21D;63746;45.402;37.922;2022-10-31T13:54:39;14.03;70.19
75164;HTU21D;63746;45.402;37.922;2022-10-31T13:59:58;13.96;70.29
75164;HTU21D;63746;45.402;37.922;2022-10-31T14:02:32;13.95;70.32
75164;HTU21D;63746;45.402;37.922;2022-10-31T14:05:03;13.92;70.27
75164;HTU21D;63746;45.402;37.922;2022-10-31T14:07:30;13.89;70.19
75164;HTU21D;63746;45.402;37.922;2022-10-31T14:12:46;13.74;70.10
75164;HTU21D;63746;45.402;37.922;2022-10-31T14:15:23;13.66;70.07
75164;HTU21D;63746;45.402;37.922;2022-10-31T14:17:55;13.58;70.16
75164;HTU21D;63746;45.402;37.922;2022-10-31T14:20:33;13.53;70.19
75164;HTU21D;63746;45.402;37.922;2022-10-31T14:26:05;13.44;70.27
75164;HTU21D;63746;45.402;37.922;2022-10-31T14:28:35;13.41;70.34
75164;HTU21D;63746;45.402;37.922;2022-10-31T14:31:01;13.35;70.37
75164;HTU21D;63746;45.402;37.922;2022-10-31T14:33:31;13.33;70.42
75164;HTU21D;63746;45.402;37.922;2022-10-31T14:36:03;13.32;70.48
75164;HTU21D;63746;45.402;37.922;2022-10-31T14:41:18;13.27;70.52
75164;HTU21D;63746;45.402;37.922;2022-10-31T14:47:10;13.27;70.55
75164;HTU21D;63746;45.402;37.922;2022-10-31T14:52:23;13.23;70.42
75164;HTU21D;63746;45.402;37.922;2022-10-31T14:54:53;13.22;70.39
75164;HTU21D;63746;45.402;37.922;2022-10-31T14:57:24;13.17;70.35
75164;HTU21D;63746;45.402;37.922;2022-10-31T14:59:56;13.12;70.33
75164;HTU21D;63746;45.402;37.922;2022-10-31T15:02:27;13.06;70.29
75164;HTU21D;63746;45.402;37.922;2022-10-31T15:04:55;13.03;70.36
75164;HTU21D;63746;45.402;37.922;2022-10-31T15:07:24;13.01;70.39
75164;HTU21D;63746;45.402;37.922;2022-10-31T15:10:05;13.00;70.29
75164;HTU21D;63746;45.402;37.922;2022-10-31T15:12:34;12.95;70.33
75164;HTU21D;63746;45.402;37.922;2022-10-31T15:17:48;12.89;70.35
75164;HTU21D;63746;45.402;37.922;2022-10-31T15:20:30;12.87;70.29
75164;HTU21D;63746;45.402;37.922;2022-10-31T15:22:59;12.84;70.36
75164;HTU21D;63746;45.402;37.922;2022-10-31T15:25:28;12.80;70.42
75164;HTU21D;63746;45.402;37.922;2022-10-31T15:27:55;12.82;70.48
75164;HTU21D;63746;45.402;37.922;2022-10-31T15:30:27;12.80;70.55
75164;HTU21D;63746;45.402;37.922;2022-10-31T15:32:53;12.81;70.58
75164;HTU21D;63746;45.402;37.922;2022-10-31T15:35:26;12.87;70.53
75164;HTU21D;63746;45.402;37.922;2022-10-31T15:37:53;12.86;70.53
75164;HTU21D;63746;45.402;37.922;2022-10-31T15:40:21;12.87;70.48
75164;HTU21D;63746;45.402;37.922;2022-10-31T15:42:59;12.87;70.38
75164;HTU21D;63746;45.402;37.922;2022-10-31T15:45:28;12.86;70.37
75164;HTU21D;63746;45.402;37.922;2022-10-31T15:48:02;12.85;70.07
75164;HTU21D;63746;45.402;37.922;2022-10-31T15:50:37;12.79;70.25
75164;HTU21D;63746;45.402;37.922;2022-10-31T15:53:06;12.76;70.26
75164;HTU21D;63746;45.402;37.922;2022-10-31T15:55:48;12.72;70.23
75164;HTU21D;63746;45.402;37.922;2022-10-31T15:58:16;12.72;70.26
75164;HTU21D;63746;45.402;37.922;2022-10-31T16:00:43;12.70;70.20
75164;HTU21D;63746;45.402;37.922;2022-10-31T16:05:43;12.63;70.18
75164;HTU21D;63746;45.402;37.922;2022-10-31T16:08:34;12.60;69.92
75164;HTU21D;63746;45.402;37.922;2022-10-31T16:13:38;12.53;70.02
75164;HTU21D;63746;45.402;37.922;2022-10-31T16:16:13;12.49;69.94
75164;HTU21D;63746;45.402;37.922;2022-10-31T16:18:41;12.44;70.02
75164;HTU21D;63746;45.402;37.922;2022-10-31T16:21:08;12.43;70.06
75164;HTU21D;63746;45.402;37.922;2022-10-31T16:23:53;12.40;70.02
75164;HTU21D;63746;45.402;37.922;2022-10-31T16:26:21;12.36;70.04
75164;HTU21D;63746;45.402;37.922;2022-10-31T16:28:53;12.34;70.05
75164;HTU21D;63746;45.402;37.922;2022-10-31T16:31:28;12.33;70.14
75164;HTU21D;63746;45.402;37.922;2022-10-31T16:34:19;12.36;70.10
75164;HTU21D;63746;45.402;37.922;2022-10-31T16:36:47;12.33;69.99
75164;HTU21D;63746;45.402;37.922;2022-10-31T16:39:14;12.31;69.97
75164;HTU21D;63746;45.402;37.922;2022-10-31T16:41:43;12.27;69.37
75164;HTU21D;63746;45.402;37.922;2022-10-31T16:46:43;12.18;69.94
75164;HTU21D;63746;45.402;37.922;2022-10-31T16:49:10;12.14;69.95
75164;HTU21D;63746;45.402;37.922;2022-10-31T16:51:39;12.13;69.94
75164;HTU21D;63746;45.402;37.922;2022-10-31T16:54:05;12.07;69.90
75164;HTU21D;63746;45.402;37.922;2022-10-31T16:56:34;12.05;69.93
75164;HTU21D;63746;45.402;37.922;2022-10-31T16:59:03;12.02;69.96
75164;HTU21D;63746;45.402;37.922;2022-10-31T17:01:31;12.00;69.91
75164;HTU21D;63746;45.402;37.922;2022-10-31T17:03:57;11.98;69.90
75164;HTU21D;63746;45.402;37.922;2022-10-31T17:06:24;11.97;69.87
75164;HTU21D;63746;45.402;37.922;2022-10-31T17:08:53;11.92;69.86
75164;HTU21D;63746;45.402;37.922;2022-10-31T17:11:22;11.88;69.78
75164;HTU21D;63746;45.402;37.922;2022-10-31T17:13:50;11.85;69.81
75164;HTU21D;63746;45.402;37.922;2022-10-31T17:16:16;11.82;69.80
75164;HTU21D;63746;45.402;37.922;2022-10-31T17:18:44;11.77;69.81
75164;HTU21D;63746;45.402;37.922;2022-10-31T17:21:18;11.75;69.74
75164;HTU21D;63746;45.402;37.922;2022-10-31T17:23:46;11.71;69.84
75164;HTU21D;63746;45.402;37.922;2022-10-31T17:26:13;11.70;69.86
75164;HTU21D;63746;45.402;37.922;2022-10-31T17:28:40;11.68;69.81
75164;HTU21D;63746;45.402;37.922;2022-10-31T17:31:21;11.64;69.73
75164;HTU21D;63746;45.402;37.922;2022-10-31T17:33:47;11.60;69.71
75164;HTU21D;63746;45.402;37.922;2022-10-31T17:36:14;11.56;69.73
75164;HTU21D;63746;45.402;37.922;2022-10-31T17:38:40;11.52;69.69
75164;HTU21D;63746;45.402;37.922;2022-10-31T17:41:07;11.48;69.81
75164;HTU21D;63746;45.402;37.922;2022-10-31T17:43:33;11.46;69.81
75164;HTU21D;63746;45.402;37.922;2022-10-31T17:46:01;11.45;69.78
75164;HTU21D;63746;45.402;37.922;2022-10-31T17:48:28;11.42;69.78